createdAt,value
2023-01-27T00:00:53.621Z,103413.25
2023-01-27T00:03:21.754Z,103408.78
2023-01-27T00:05:49.758Z,103408.78
2023-01-27T00:08:17.980Z,103404.34
2023-01-27T00:10:46.079Z,103401.66
2023-01-27T00:13:28.558Z,103398.97
2023-01-27T00:15:57.950Z,103392.69
2023-01-27T00:18:25.913Z,103394.44
2023-01-27T00:21:11.541Z,103396.13
2023-01-27T00:23:56.954Z,103394.28
2023-01-27T00:26:24.982Z,103391.53
2023-01-27T00:28:52.899Z,103395.03
2023-01-27T00:31:40.044Z,103387.06
2023-01-27T00:34:10.174Z,103391.41
2023-01-27T00:36:38.318Z,103383.41
2023-01-27T00:39:06.301Z,103386.97
2023-01-27T00:41:34.931Z,103382.53
2023-01-27T00:44:03.009Z,103377.22
2023-01-27T00:46:32.435Z,103376.34
2023-01-27T00:49:00.438Z,103371.09
2023-01-27T00:51:28.398Z,103368.44
2023-01-27T00:53:56.327Z,103361.38
2023-01-27T00:56:24.255Z,103369.34
2023-01-27T00:58:52.196Z,103364.97
2023-01-27T01:01:20.090Z,103365.94
2023-01-27T01:03:49.468Z,103356.25
2023-01-27T01:06:17.844Z,103356.31
2023-01-27T01:08:45.805Z,103349.22
2023-01-27T01:11:14.851Z,103350.91
2023-01-27T01:13:42.894Z,103302.13
2023-01-27T01:16:12.037Z,103341.16
2023-01-27T01:18:40.153Z,103337.59
2023-01-27T01:21:09.571Z,103324.28
2023-01-27T01:23:39.355Z,103331.31
2023-01-27T01:26:07.310Z,103325.94
2023-01-27T01:28:35.375Z,103326.78
2023-01-27T01:31:07.354Z,103322.31
2023-01-27T01:33:35.437Z,103319.59
2023-01-27T01:36:07.624Z,103313.38
2023-01-27T01:38:36.933Z,103311.56
2023-01-27T01:41:05.205Z,103304.50
2023-01-27T01:43:33.146Z,103303.59
2023-01-27T01:46:01.467Z,103304.44
2023-01-27T01:48:34.437Z,103285.81
2023-01-27T01:51:05.999Z,103312.41
2023-01-27T01:53:38.079Z,103302.69
2023-01-27T01:56:08.989Z,103306.22
2023-01-27T01:58:36.957Z,103302.69
2023-01-27T02:01:05.736Z,103300.88
2023-01-27T02:03:34.024Z,103297.31
2023-01-27T02:06:01.950Z,103296.34
2023-01-27T02:08:31.900Z,103300.78
2023-01-27T02:11:01.503Z,103300.72
2023-01-27T02:13:29.406Z,103289.16
2023-01-27T02:15:57.355Z,103282.09
2023-01-27T02:18:25.408Z,103290.97
2023-01-27T02:20:54.291Z,103294.41
2023-01-27T02:23:34.551Z,103292.59
2023-01-27T02:26:06.557Z,103294.25
2023-01-27T02:28:34.494Z,103294.16
2023-01-27T02:31:02.589Z,103289.72
2023-01-27T02:33:30.656Z,103287.97
2023-01-27T02:36:01.001Z,103275.66
2023-01-27T02:38:29.482Z,103282.75
2023-01-27T02:40:59.056Z,103277.50
2023-01-27T02:43:28.472Z,103271.31
2023-01-27T02:45:56.452Z,103271.22
2023-01-27T02:48:24.386Z,103274.69
2023-01-27T02:50:52.349Z,103271.03
2023-01-27T02:53:20.336Z,103271.03
2023-01-27T02:55:48.300Z,103265.75
2023-01-27T02:58:16.510Z,103271.09
2023-01-27T03:00:45.834Z,103269.34
2023-01-27T03:03:13.749Z,103265.75
2023-01-27T03:05:42.015Z,103265.84
2023-01-27T03:08:09.987Z,103257.13
2023-01-27T03:10:37.949Z,103261.63
2023-01-27T03:13:06.193Z,103252.91
2023-01-27T03:15:51.326Z,103252.06
2023-01-27T03:18:22.557Z,103248.63
2023-01-27T03:20:50.644Z,103249.59
2023-01-27T03:23:20.221Z,103243.50
2023-01-27T03:25:49.173Z,103239.91
2023-01-27T03:28:17.194Z,103255.03
2023-01-27T03:30:45.209Z,103252.41
2023-01-27T03:33:13.233Z,103232.06
2023-01-27T03:35:48.567Z,103256.00
2023-01-27T03:38:34.507Z,103256.03
2023-01-27T03:41:21.339Z,103247.22
2023-01-27T03:44:06.756Z,103245.56
2023-01-27T03:46:34.717Z,103252.72
2023-01-27T03:49:02.692Z,103220.88
2023-01-27T03:51:31.997Z,103252.88
2023-01-27T03:54:01.004Z,103242.31
2023-01-27T03:56:28.992Z,103237.94
2023-01-27T03:58:57.807Z,103230.88
2023-01-27T04:01:25.899Z,103242.34
2023-01-27T04:04:11.598Z,103236.13
2023-01-27T04:06:53.462Z,103244.03
2023-01-27T04:09:22.518Z,103232.56
2023-01-27T04:11:55.392Z,103237.88
2023-01-27T04:14:24.472Z,103231.63
2023-01-27T04:16:53.364Z,103238.59
2023-01-27T04:19:21.359Z,103236.75
2023-01-27T04:21:51.018Z,103242.06
2023-01-27T04:24:22.584Z,103236.75
2023-01-27T04:26:53.202Z,103238.50
2023-01-27T04:29:21.303Z,103232.31
2023-01-27T04:31:49.378Z,103234.97
2023-01-27T04:34:17.596Z,103232.31
2023-01-27T04:36:45.627Z,103234.06
2023-01-27T04:39:15.475Z,103225.22
2023-01-27T04:41:43.661Z,103229.72
2023-01-27T04:44:11.587Z,103227.09
2023-01-27T04:46:39.599Z,103216.44
2023-01-27T04:49:07.713Z,103231.47
2023-01-27T04:51:35.802Z,103227.88
2023-01-27T04:54:05.596Z,103233.22
2023-01-27T04:56:35.733Z,103232.31
2023-01-27T04:59:04.620Z,103226.25
2023-01-27T05:01:32.600Z,103235.94
2023-01-27T05:04:00.578Z,103240.34
2023-01-27T05:06:28.551Z,103239.47
2023-01-27T05:08:57.258Z,103221.81
2023-01-27T05:11:25.143Z,103242.19
2023-01-27T05:13:54.434Z,103232.50
2023-01-27T05:16:23.687Z,103236.94
2023-01-27T05:18:52.599Z,103235.16
2023-01-27T05:21:21.413Z,103238.66
2023-01-27T05:23:49.711Z,103239.47
2023-01-27T05:26:19.189Z,103234.19
2023-01-27T05:28:48.027Z,103231.53
2023-01-27T05:31:19.026Z,103224.50
2023-01-27T05:33:47.259Z,103234.22
2023-01-27T05:36:16.094Z,103218.34
2023-01-27T05:38:44.139Z,103225.41
2023-01-27T05:41:12.807Z,103224.59
2023-01-27T05:43:41.910Z,103220.22
2023-01-27T05:46:10.722Z,103223.88
2023-01-27T05:48:42.845Z,103216.84
2023-01-27T05:51:13.519Z,103212.47
2023-01-27T05:53:42.710Z,103218.72
2023-01-27T05:56:11.735Z,103208.16
2023-01-27T05:58:39.747Z,103221.47
2023-01-27T06:01:08.550Z,103221.47
2023-01-27T06:03:36.574Z,103222.38
2023-01-27T06:06:06.810Z,103221.53
2023-01-27T06:08:35.006Z,103218.00
2023-01-27T06:11:03.136Z,103227.72
2023-01-27T06:13:31.282Z,103220.66
2023-01-27T06:15:59.465Z,103224.19
2023-01-27T06:18:27.412Z,103218.03
2023-01-27T06:20:58.627Z,103225.97
2023-01-27T06:23:28.364Z,103220.69
2023-01-27T06:25:56.536Z,103221.53
2023-01-27T06:28:29.183Z,103224.19
2023-01-27T06:30:57.958Z,103214.50
2023-01-27T06:33:25.938Z,103214.47
2023-01-27T06:35:53.895Z,103209.19
2023-01-27T06:38:21.849Z,103217.16
2023-01-27T06:40:51.160Z,103215.38
2023-01-27T06:43:19.109Z,103219.81
2023-01-27T06:45:47.086Z,103215.41
2023-01-27T06:48:15.082Z,103214.53
2023-01-27T06:50:43.042Z,103226.91
2023-01-27T06:53:11.107Z,103195.03
2023-01-27T06:55:41.691Z,103219.81
2023-01-27T06:58:11.521Z,103217.19
2023-01-27T07:00:39.824Z,103223.34
2023-01-27T07:03:07.872Z,103221.59
2023-01-27T07:05:35.827Z,103221.59
2023-01-27T07:08:03.804Z,103227.81
2023-01-27T07:10:31.778Z,103223.34
2023-01-27T07:13:06.084Z,103216.28
2023-01-27T07:15:35.557Z,103224.25
2023-01-27T07:18:03.622Z,103231.34
2023-01-27T07:20:31.756Z,103220.69
2023-01-27T07:23:00.112Z,103230.44
2023-01-27T07:25:28.160Z,103218.97
2023-01-27T07:27:58.031Z,103229.59
2023-01-27T07:30:26.004Z,103223.38
2023-01-27T07:32:55.629Z,103223.41
2023-01-27T07:35:23.646Z,103224.28
2023-01-27T07:37:51.608Z,103222.53
2023-01-27T07:40:20.451Z,103232.28
2023-01-27T07:42:48.458Z,103224.31
2023-01-27T07:45:16.435Z,103233.16
2023-01-27T07:47:44.412Z,103234.00
2023-01-27T07:50:14.319Z,103234.00
2023-01-27T07:52:42.421Z,103243.75
2023-01-27T07:55:11.072Z,103245.50
2023-01-27T07:57:39.117Z,103250.84
2023-01-27T08:00:08.246Z,103249.94
2023-01-27T08:02:36.317Z,103243.78
2023-01-27T08:05:04.398Z,103248.19
2023-01-27T08:07:33.766Z,103241.09
2023-01-27T08:10:01.725Z,103257.91
2023-01-27T08:12:30.208Z,103251.75
2023-01-27T08:14:58.162Z,103249.97
2023-01-27T08:17:26.129Z,103257.03
2023-01-27T08:19:54.087Z,103270.31
2023-01-27T08:22:24.641Z,103266.75
2023-01-27T08:24:53.990Z,103270.31
2023-01-27T08:27:21.945Z,103283.56
2023-01-27T08:29:51.150Z,103276.47
2023-01-27T08:32:19.121Z,103275.59
2023-01-27T08:34:47.090Z,103273.75
2023-01-27T08:37:15.036Z,103281.75
2023-01-27T08:39:43.119Z,103276.47
2023-01-27T08:42:12.994Z,103280.03
2023-01-27T08:44:40.968Z,103284.44
2023-01-27T08:47:08.998Z,103280.03
2023-01-27T08:49:36.958Z,103286.22
2023-01-27T08:52:05.181Z,103289.75
2023-01-27T08:54:33.174Z,103292.44
2023-01-27T08:57:01.123Z,103292.41
2023-01-27T08:59:30.575Z,103294.19
2023-01-27T09:01:58.596Z,103282.69
2023-01-27T09:04:26.682Z,103293.34
2023-01-27T09:06:54.701Z,103295.13
2023-01-27T09:09:22.625Z,103299.53
2023-01-27T09:11:50.633Z,103303.97
2023-01-27T09:14:20.004Z,103300.47
2023-01-27T09:16:49.308Z,103307.53
2023-01-27T09:19:17.400Z,103306.63
2023-01-27T09:21:45.510Z,103314.59
2023-01-27T09:24:17.772Z,103290.72
2023-01-27T09:26:46.447Z,103312.00
2023-01-27T09:29:14.421Z,103299.59
2023-01-27T09:31:42.647Z,103316.41
2023-01-27T09:34:12.263Z,103323.50
2023-01-27T09:36:43.437Z,103315.56
2023-01-27T09:39:11.418Z,103326.19
2023-01-27T09:41:56.937Z,103324.44
2023-01-27T09:44:56.117Z,103318.25
2023-01-27T09:47:43.789Z,103326.22
2023-01-27T09:50:29.145Z,103328.81
2023-01-27T09:53:25.567Z,103336.81
2023-01-27T09:55:55.211Z,103336.81
2023-01-27T09:58:26.846Z,103346.53
2023-01-27T10:00:58.982Z,103311.09
2023-01-27T10:03:33.877Z,103330.59
2023-01-27T10:06:17.073Z,103334.19
2023-01-27T10:09:04.005Z,103342.16
2023-01-27T10:11:35.609Z,103304.06
2023-01-27T10:14:11.080Z,103333.25
2023-01-27T10:16:55.341Z,103325.25
2023-01-27T10:19:33.286Z,103308.44
2023-01-27T10:22:08.091Z,103319.09
2023-01-27T10:24:42.679Z,103317.34
2023-01-27T10:27:14.553Z,103319.13
2023-01-27T10:29:45.640Z,103325.34
2023-01-27T10:32:19.523Z,103315.56
2023-01-27T10:34:49.538Z,103328.88
2023-01-27T10:37:22.150Z,103320.91
2023-01-27T10:39:52.525Z,103333.31
2023-01-27T10:42:26.201Z,103320.00
2023-01-27T10:45:11.181Z,103323.53
2023-01-27T10:47:47.717Z,103332.38
2023-01-27T10:50:16.954Z,103322.66
2023-01-27T10:52:48.523Z,103318.22
2023-01-27T10:55:17.859Z,103319.03
2023-01-27T10:57:47.674Z,103310.97
2023-01-27T11:03:07.949Z,103329.50
2023-01-27T11:05:37.564Z,103323.25
2023-01-27T11:08:09.100Z,103320.59
2023-01-27T11:10:38.300Z,103337.44
2023-01-27T11:13:06.420Z,103323.34
2023-01-27T11:15:34.856Z,103331.34
2023-01-27T11:18:05.078Z,103317.25
2023-01-27T11:20:35.244Z,103341.19
2023-01-27T11:23:05.396Z,103337.66
2023-01-27T11:25:43.339Z,103310.16
2023-01-27T11:28:19.315Z,103326.09
2023-01-27T11:30:50.046Z,103324.22
2023-01-27T11:33:20.569Z,103317.03
2023-01-27T11:35:54.526Z,103301.88
2023-01-27T11:38:23.457Z,103312.41
2023-01-27T11:40:53.169Z,103314.00
2023-01-27T11:43:22.372Z,103297.06
2023-01-27T11:45:50.309Z,103295.25
2023-01-27T11:48:18.459Z,103278.75
2023-01-27T11:50:46.479Z,103285.81
2023-01-27T11:53:18.459Z,103283.97
2023-01-27T11:55:48.419Z,103274.03
2023-01-27T11:58:22.559Z,103272.66
2023-01-27T12:03:23.419Z,103259.97
2023-01-27T12:05:55.347Z,103269.78
2023-01-27T12:08:40.421Z,103266.88
2023-01-27T12:11:22.222Z,103264.19
2023-01-27T12:13:53.045Z,103265.28
2023-01-27T12:16:21.050Z,103260.25
2023-01-27T12:18:52.189Z,103257.88
2023-01-27T12:21:20.155Z,103264.28
2023-01-27T12:23:49.251Z,103256.41
2023-01-27T12:26:17.267Z,103256.44
2023-01-27T12:28:50.615Z,103254.72
2023-01-27T12:31:21.470Z,103215.84
2023-01-27T12:33:52.490Z,103250.44
2023-01-27T12:36:23.244Z,103240.69
2023-01-27T12:38:52.618Z,103245.16
2023-01-27T12:41:24.974Z,103237.19
2023-01-27T12:43:53.701Z,103230.94
2023-01-27T12:46:24.031Z,103230.09
2023-01-27T12:48:52.551Z,103227.50
2023-01-27T12:51:22.474Z,103226.72
2023-01-27T12:53:50.723Z,103217.94
2023-01-27T12:56:20.189Z,103214.47
2023-01-27T12:58:52.206Z,103215.38
2023-01-27T13:01:30.174Z,103223.34
2023-01-27T13:03:59.739Z,103215.41
2023-01-27T13:06:33.705Z,103218.06
2023-01-27T13:09:01.699Z,103218.09
2023-01-27T13:11:34.982Z,103224.31
2023-01-27T13:14:02.907Z,103211.94
2023-01-27T13:16:32.319Z,103208.41
2023-01-27T13:19:01.309Z,103213.72
2023-01-27T13:21:31.164Z,103208.38
2023-01-27T13:23:59.237Z,103214.56
2023-01-27T13:26:28.720Z,103173.00
2023-01-27T13:28:58.211Z,103204.78
2023-01-27T13:31:35.855Z,103189.72
2023-01-27T13:34:05.892Z,103195.03
2023-01-27T13:36:36.811Z,103190.56
2023-01-27T13:39:07.759Z,103180.81
2023-01-27T13:41:38.146Z,103198.47
2023-01-27T13:44:11.242Z,103195.72
2023-01-27T13:46:40.668Z,103195.72
2023-01-27T13:49:17.526Z,103193.06
2023-01-27T13:51:45.438Z,103189.50
2023-01-27T13:54:13.741Z,103189.38
2023-01-27T13:56:49.250Z,103181.22
2023-01-27T13:59:33.081Z,103181.16
2023-01-27T14:02:09.119Z,103189.13
2023-01-27T14:04:57.131Z,103189.19
2023-01-27T14:07:27.602Z,103192.81
2023-01-27T14:10:03.130Z,103180.47
2023-01-27T14:12:41.267Z,103196.50
2023-01-27T14:15:17.091Z,103161.19
2023-01-27T14:17:48.141Z,103184.06
2023-01-27T14:20:24.731Z,103185.75
2023-01-27T14:22:57.706Z,103178.66
2023-01-27T14:25:28.768Z,103181.97
2023-01-27T14:27:58.524Z,103157.53
2023-01-27T14:30:28.118Z,103169.69
2023-01-27T14:32:59.855Z,103168.84
2023-01-27T14:35:32.211Z,103160.22
2023-01-27T14:38:06.741Z,103165.69
2023-01-27T14:40:37.050Z,103169.38
2023-01-27T14:43:19.688Z,103177.44
2023-01-27T14:45:49.269Z,103174.78
2023-01-27T14:48:26.443Z,103169.41
2023-01-27T14:50:58.716Z,103169.44
2023-01-27T14:53:40.913Z,103156.16
2023-01-27T14:56:12.794Z,103167.72
2023-01-27T14:58:47.581Z,103164.22
2023-01-27T15:01:23.861Z,103173.09
2023-01-27T15:04:20.464Z,103170.16
2023-01-27T15:06:48.984Z,103171.84
2023-01-27T15:09:39.789Z,103165.75
2023-01-27T15:12:17.016Z,103182.75
2023-01-27T15:15:21.290Z,103189.22
2023-01-27T15:17:56.861Z,103161.13
2023-01-27T15:20:31.655Z,103192.19
2023-01-27T15:23:05.904Z,103200.22
2023-01-27T15:25:34.358Z,103199.44
2023-01-27T15:28:02.319Z,103191.53
2023-01-27T15:30:31.292Z,103195.97
2023-01-27T15:32:59.229Z,103196.00
2023-01-27T15:35:41.164Z,103196.88
2023-01-27T15:38:23.023Z,103196.00
2023-01-27T15:40:57.492Z,103202.22
2023-01-27T15:43:25.687Z,103202.22
2023-01-27T15:45:55.498Z,103195.16
2023-01-27T15:48:24.213Z,103201.34
2023-01-27T15:50:56.015Z,103201.31
2023-01-27T15:53:27.671Z,103213.72
2023-01-27T15:55:55.970Z,103219.03
2023-01-27T15:58:26.016Z,103210.19
2023-01-27T16:00:54.574Z,103212.81
2023-01-27T16:03:25.454Z,103211.06
2023-01-27T16:05:56.569Z,103209.28
2023-01-27T16:08:24.504Z,103211.97
2023-01-27T16:10:52.493Z,103211.94
2023-01-27T16:13:24.870Z,103216.38
2023-01-27T16:16:23.306Z,103222.59
2023-01-27T16:18:53.571Z,103211.97
2023-01-27T16:21:34.445Z,103214.66
2023-01-27T16:24:04.409Z,103213.75
2023-01-27T16:26:33.952Z,103211.09
2023-01-27T16:29:12.525Z,103209.34
2023-01-27T16:31:41.680Z,103204.88
2023-01-27T16:34:16.191Z,103184.56
2023-01-27T16:36:45.469Z,103223.47
2023-01-27T16:39:25.461Z,103221.72
2023-01-27T16:41:54.865Z,103223.50
2023-01-27T16:44:23.674Z,103224.38
2023-01-27T16:46:52.417Z,103221.72
2023-01-27T16:49:22.982Z,103235.88
2023-01-27T16:51:56.861Z,103247.41
2023-01-27T16:54:26.541Z,103244.72
2023-01-27T16:56:54.529Z,103250.03
2023-01-27T16:59:23.521Z,103247.34
2023-01-27T17:01:51.698Z,103258.00
2023-01-27T17:04:21.186Z,103263.31
2023-01-27T17:06:49.437Z,103259.75
2023-01-27T17:09:23.361Z,103228.75
2023-01-27T17:11:51.314Z,103260.63
2023-01-27T17:14:30.375Z,103260.63
2023-01-27T17:16:59.380Z,103266.78
2023-01-27T17:19:29.742Z,103252.59
2023-01-27T17:21:58.672Z,103274.66
2023-01-27T17:24:29.000Z,103275.50
2023-01-27T17:26:59.837Z,103271.91
2023-01-27T17:29:29.953Z,103279.81
2023-01-27T17:31:58.027Z,103282.47
2023-01-27T17:34:25.997Z,103286.84
2023-01-27T17:37:07.332Z,103292.09
2023-01-27T17:39:36.765Z,103297.41
2023-01-27T17:42:05.781Z,103275.16
2023-01-27T17:44:33.935Z,103304.34
2023-01-27T17:47:02.102Z,103311.31
2023-01-27T17:49:30.004Z,103318.31
2023-01-27T17:51:58.837Z,103316.50
2023-01-27T17:54:27.812Z,103312.94
2023-01-27T17:57:02.063Z,103302.31
2023-01-27T17:59:29.985Z,103312.06
2023-01-27T18:02:00.740Z,103306.72
2023-01-27T18:04:28.678Z,103329.75
2023-01-27T18:06:56.606Z,103328.03
2023-01-27T18:09:26.676Z,103320.06
2023-01-27T18:11:56.564Z,103317.44
2023-01-27T18:14:25.953Z,103338.69
2023-01-27T18:17:03.725Z,103340.47
2023-01-27T18:19:31.708Z,103323.66
2023-01-27T18:22:04.460Z,103323.66
2023-01-27T18:24:33.273Z,103324.56
2023-01-27T18:27:01.213Z,103337.88
2023-01-27T18:29:32.329Z,103332.53
2023-01-27T18:32:00.831Z,103338.66
2023-01-27T18:34:29.653Z,103336.00
2023-01-27T18:36:58.799Z,103329.81
2023-01-27T18:39:30.221Z,103321.78
2023-01-27T18:41:58.084Z,103322.66
2023-01-27T18:44:34.420Z,103314.63
2023-01-27T18:47:28.300Z,103322.56
2023-01-27T18:49:59.807Z,103326.97
2023-01-27T18:52:27.786Z,103334.91
2023-01-27T18:54:56.770Z,103329.56
2023-01-27T18:57:24.714Z,103329.63
2023-01-27T18:59:52.639Z,103324.31
2023-01-27T19:02:22.052Z,103326.06
2023-01-27T19:04:50.110Z,103337.56
2023-01-27T19:07:18.771Z,103296.78
2023-01-27T19:09:47.465Z,103318.09
2023-01-27T19:12:15.399Z,103346.44
2023-01-27T19:14:43.578Z,103345.53
2023-01-27T19:17:18.031Z,103339.38
2023-01-27T19:19:47.648Z,103330.50
2023-01-27T19:22:16.940Z,103326.88
2023-01-27T19:24:45.518Z,103349.91
2023-01-27T19:27:14.077Z,103338.41
2023-01-27T19:29:42.060Z,103350.81
2023-01-27T19:32:12.394Z,103343.78
2023-01-27T19:34:40.311Z,103342.97
2023-01-27T19:37:16.390Z,103352.72
2023-01-27T19:39:45.060Z,103347.41
2023-01-27T19:42:13.037Z,103354.56
2023-01-27T19:44:40.926Z,103352.84
2023-01-27T19:47:11.990Z,103356.34
2023-01-27T19:49:39.895Z,103349.28
2023-01-27T19:52:07.816Z,103347.50
2023-01-27T19:54:37.151Z,103347.47
2023-01-27T19:57:05.089Z,103352.84
2023-01-27T19:59:33.068Z,103351.09
2023-01-27T20:02:01.081Z,103359.06
2023-01-27T20:04:29.143Z,103364.38
2023-01-27T20:06:57.082Z,103369.69
2023-01-27T20:09:25.062Z,103367.06
2023-01-27T20:11:54.385Z,103368.84
2023-01-27T20:14:25.808Z,103374.13
2023-01-27T20:16:53.756Z,103361.72
2023-01-27T20:19:21.694Z,103351.97
2023-01-27T20:21:49.845Z,103372.34
2023-01-27T20:24:18.267Z,103353.75
2023-01-27T20:26:46.368Z,103375.03
2023-01-27T20:29:15.705Z,103371.50
2023-01-27T20:31:43.745Z,103378.53
2023-01-27T20:34:11.811Z,103378.53
2023-01-27T20:36:39.734Z,103375.00
2023-01-27T20:39:07.717Z,103381.16
2023-01-27T20:41:35.677Z,103384.69
2023-01-27T20:44:03.625Z,103386.50
2023-01-27T20:46:33.009Z,103383.81
2023-01-27T20:49:01.343Z,103379.38
2023-01-27T20:51:29.692Z,103371.38
2023-01-27T20:54:00.130Z,103339.44
2023-01-27T20:56:28.244Z,103368.69
2023-01-27T20:58:56.142Z,103377.53
2023-01-27T21:01:24.470Z,103371.34
2023-01-27T21:03:53.835Z,103376.63
2023-01-27T21:06:21.857Z,103375.81
2023-01-27T21:08:50.246Z,103376.69
2023-01-27T21:11:18.761Z,103377.53
2023-01-27T21:13:47.075Z,103378.38
2023-01-27T21:16:15.029Z,103372.19
2023-01-27T21:18:44.076Z,103371.25
2023-01-27T21:21:21.984Z,103372.16
2023-01-27T21:23:49.957Z,103374.81
2023-01-27T21:26:17.981Z,103371.25
2023-01-27T21:28:46.010Z,103373.91
2023-01-27T21:31:18.195Z,103326.84
2023-01-27T21:33:48.054Z,103376.56
2023-01-27T21:36:17.560Z,103381.84
2023-01-27T21:38:45.496Z,103375.75
2023-01-27T21:41:34.943Z,103377.53
2023-01-27T21:44:20.144Z,103386.38
2023-01-27T21:46:48.167Z,103381.13
2023-01-27T21:49:16.126Z,103363.44
2023-01-27T21:51:45.395Z,103376.78
2023-01-27T21:54:13.295Z,103378.63
2023-01-27T21:56:41.209Z,103379.44
2023-01-27T21:59:09.333Z,103377.69
2023-01-27T22:01:37.248Z,103373.25
2023-01-27T22:04:05.313Z,103374.09
2023-01-27T22:06:33.675Z,103367.00
2023-01-27T22:09:03.084Z,103369.72
2023-01-27T22:11:30.995Z,103365.28
2023-01-27T22:13:58.887Z,103360.91
2023-01-27T22:16:27.086Z,103365.34
2023-01-27T22:18:55.082Z,103368.03
2023-01-27T22:21:23.014Z,103366.25
2023-01-27T22:23:51.009Z,103361.88
2023-01-27T22:26:20.769Z,103365.44
2023-01-27T22:28:48.726Z,103360.13
2023-01-27T22:31:16.659Z,103370.72
2023-01-27T22:33:44.562Z,103374.25
2023-01-27T22:36:12.485Z,103368.03
2023-01-27T22:38:40.458Z,103360.09
2023-01-27T22:41:08.346Z,103366.28
2023-01-27T22:43:47.484Z,103354.84
2023-01-27T22:46:15.432Z,103355.69
2023-01-27T22:48:43.365Z,103350.41
2023-01-27T22:51:11.317Z,103349.50
2023-01-27T22:53:39.252Z,103357.41
2023-01-27T22:56:08.262Z,103353.88
2023-01-27T22:58:37.534Z,103360.97
2023-01-27T23:01:06.407Z,103354.81
2023-01-27T23:03:34.345Z,103359.25
2023-01-27T23:06:05.076Z,103349.53
2023-01-27T23:08:32.987Z,103359.25
2023-01-27T23:11:01.026Z,103339.75
2023-01-27T23:13:28.916Z,103349.50
2023-01-27T23:15:58.195Z,103367.19
2023-01-27T23:18:26.258Z,103373.38
2023-01-27T23:20:54.186Z,103368.09
2023-01-27T23:23:23.274Z,103371.59
2023-01-27T23:25:51.265Z,103368.09
2023-01-27T23:28:19.482Z,103355.69
2023-01-27T23:30:47.900Z,103359.22
2023-01-27T23:33:17.443Z,103359.25
2023-01-27T23:35:45.542Z,103359.25
2023-01-27T23:38:30.369Z,103361.84
2023-01-27T23:41:01.862Z,103367.09
2023-01-27T23:43:30.959Z,103368.84
2023-01-27T23:45:59.009Z,103367.97
2023-01-27T23:48:28.458Z,103372.41
2023-01-27T23:50:56.496Z,103366.25
2023-01-27T23:53:24.395Z,103327.19
2023-01-27T23:55:58.381Z,103354.66
2023-01-27T23:58:26.573Z,103373.31
